createdAt,value
2023-04-18T00:03:33.775Z,90.64
2023-04-18T00:08:59.661Z,90.92
2023-04-18T00:14:25.419Z,90.64
2023-04-18T00:19:51.158Z,90.79
2023-04-18T00:25:17.045Z,91.06
2023-04-18T00:30:43.042Z,90.89
2023-04-18T00:36:08.761Z,90.80
2023-04-18T00:41:32.869Z,90.65
2023-04-18T00:46:58.504Z,91.01
2023-04-18T00:52:24.290Z,90.78
2023-04-18T00:57:50.012Z,90.93
2023-04-18T01:03:16.016Z,90.46
2023-04-18T01:08:42.874Z,90.84
2023-04-18T01:14:21.322Z,90.75
2023-04-18T01:19:47.074Z,90.69
2023-04-18T01:25:12.768Z,90.97
2023-04-18T01:30:38.566Z,91.17
2023-04-18T01:36:04.416Z,91.05
2023-04-18T01:41:30.100Z,91.45
2023-04-18T01:46:56.397Z,90.95
2023-04-18T01:52:22.019Z,90.93
2023-04-18T01:57:48.019Z,91.00
2023-04-18T02:03:13.819Z,91.55
2023-04-18T02:08:40.313Z,91.54
2023-04-18T02:13:59.678Z,91.48
2023-04-18T02:19:25.384Z,91.25
2023-04-18T02:24:43.527Z,91.65
2023-04-18T02:30:09.264Z,91.69
2023-04-18T02:35:34.967Z,91.73
2023-04-18T02:41:00.648Z,91.62
2023-04-18T02:46:18.740Z,91.77
2023-04-18T02:51:44.444Z,91.85
2023-04-18T02:57:10.153Z,91.68
2023-04-18T03:02:35.909Z,91.89
2023-04-18T03:08:01.902Z,91.54
2023-04-18T03:13:27.783Z,91.90
2023-04-18T03:18:53.427Z,91.77
2023-04-18T03:24:19.217Z,91.96
2023-04-18T03:29:44.920Z,91.84
2023-04-18T03:35:11.541Z,91.75
2023-04-18T03:40:37.485Z,92.07
2023-04-18T03:46:03.338Z,91.68
2023-04-18T03:51:29.089Z,92.11
2023-04-18T03:56:55.093Z,92.16
2023-04-18T04:02:20.914Z,92.33
2023-04-18T04:07:47.098Z,92.38
2023-04-18T04:13:12.853Z,92.24
2023-04-18T04:18:30.861Z,92.27
2023-04-18T04:23:56.576Z,92.39
2023-04-18T04:29:22.319Z,91.91
2023-04-18T04:34:47.985Z,92.19
2023-04-18T04:40:13.792Z,91.73
2023-04-18T04:45:39.817Z,91.70
2023-04-18T04:51:13.290Z,91.70
2023-04-18T04:56:39.010Z,91.31
2023-04-18T05:01:57.440Z,91.27
2023-04-18T05:07:23.167Z,91.42
2023-04-18T05:12:48.879Z,90.94
2023-04-18T05:18:14.517Z,90.83
2023-04-18T05:23:40.249Z,90.81
2023-04-18T05:29:06.031Z,90.77
2023-04-18T05:34:30.401Z,90.88
2023-04-18T05:39:56.830Z,90.88
2023-04-18T05:45:23.814Z,90.64
2023-04-18T05:50:49.440Z,90.41
2023-04-18T05:56:15.196Z,88.61
2023-04-18T06:01:40.912Z,87.99
2023-04-18T06:07:06.623Z,87.75
2023-04-18T06:12:32.258Z,87.50
2023-04-18T06:17:58.316Z,86.20
2023-04-18T06:23:24.033Z,86.72
2023-04-18T06:28:49.854Z,87.30
2023-04-18T06:34:15.742Z,87.63
2023-04-18T06:39:34.142Z,87.72
2023-04-18T06:44:59.788Z,87.55
2023-04-18T06:50:19.100Z,88.12
2023-04-18T06:55:44.755Z,88.00
2023-04-18T07:00:59.060Z,87.58
2023-04-18T07:06:25.045Z,87.61
2023-04-18T07:11:50.950Z,88.08
2023-04-18T07:17:00.919Z,87.96
2023-04-18T07:22:26.762Z,86.90
2023-04-18T07:27:53.716Z,84.98
2023-04-18T07:33:19.608Z,84.32
2023-04-18T07:38:28.585Z,83.97
2023-04-18T07:43:45.185Z,83.23
2023-04-18T07:49:10.923Z,81.90
2023-04-18T07:54:36.720Z,81.25
2023-04-18T08:00:02.345Z,80.48
2023-04-18T08:05:29.583Z,79.96
2023-04-18T08:10:45.151Z,79.84
2023-04-18T08:16:02.211Z,80.33
2023-04-18T08:21:28.168Z,80.44
2023-04-18T08:26:53.996Z,80.44
2023-04-18T08:32:19.831Z,80.69
2023-04-18T08:37:35.488Z,80.02
2023-04-18T08:43:08.011Z,79.84
2023-04-18T08:48:35.408Z,79.71
2023-04-18T08:54:01.138Z,80.06
2023-04-18T08:59:27.033Z,79.84
2023-04-18T09:04:57.747Z,79.87
2023-04-18T09:10:23.534Z,79.93
2023-04-18T09:15:50.035Z,79.86
2023-04-18T09:21:04.521Z,78.98
2023-04-18T09:26:21.187Z,78.64
2023-04-18T09:31:47.015Z,78.70
2023-04-18T09:37:27.080Z,78.12
2023-04-18T09:42:37.260Z,77.91
2023-04-18T09:48:03.040Z,77.45
2023-04-18T09:53:30.927Z,76.28
2023-04-18T09:59:01.013Z,76.82
2023-04-18T10:04:27.317Z,76.60
2023-04-18T10:09:44.656Z,76.08
2023-04-18T10:15:10.933Z,75.53
2023-04-18T10:20:23.973Z,75.35
2023-04-18T10:25:59.484Z,74.92
2023-04-18T10:31:25.546Z,74.61
2023-04-18T10:36:50.096Z,75.25
2023-04-18T10:42:06.751Z,75.49
2023-04-18T10:47:42.589Z,74.64
2023-04-18T10:53:08.303Z,73.98
2023-04-18T10:58:37.222Z,74.29
2023-04-18T11:04:04.039Z,74.12
2023-04-18T11:09:33.794Z,74.00
2023-04-18T11:14:56.069Z,73.92
2023-04-18T11:20:27.033Z,73.49
2023-04-18T11:25:57.044Z,72.95
2023-04-18T11:31:22.990Z,72.57
2023-04-18T11:36:38.842Z,72.35
2023-04-18T11:41:59.560Z,72.45
2023-04-18T11:47:25.523Z,72.10
2023-04-18T11:52:53.005Z,70.90
2023-04-18T11:58:20.323Z,71.20
2023-04-18T12:03:29.686Z,72.04
2023-04-18T12:08:55.491Z,71.69
2023-04-18T12:14:21.436Z,71.50
2023-04-18T12:19:49.959Z,71.75
2023-04-18T12:31:04.478Z,71.22
2023-04-18T12:36:32.878Z,71.47
2023-04-18T12:41:58.583Z,70.08
2023-04-18T12:47:24.447Z,70.49
2023-04-18T12:52:50.104Z,71.07
2023-04-18T12:58:16.614Z,70.68
2023-04-18T13:03:42.468Z,70.74
2023-04-18T13:09:08.243Z,70.56
2023-04-18T13:14:33.868Z,70.72
2023-04-18T13:19:59.870Z,70.77
2023-04-18T13:25:17.055Z,70.45
2023-04-18T13:30:25.503Z,69.56
2023-04-18T13:35:51.676Z,68.65
2023-04-18T13:41:08.904Z,68.52
2023-04-18T13:46:33.412Z,68.53
2023-04-18T13:51:59.336Z,68.39
2023-04-18T13:57:11.390Z,68.29
2023-04-18T14:02:37.199Z,67.93
2023-04-18T14:07:54.287Z,67.31
2023-04-18T14:13:19.940Z,68.40
2023-04-18T14:18:45.942Z,68.19
2023-04-18T14:24:12.694Z,68.28
2023-04-18T14:29:38.450Z,67.80
2023-04-18T14:35:04.296Z,67.89
2023-04-18T14:40:33.023Z,68.34
2023-04-18T14:45:41.415Z,68.83
2023-04-18T14:51:04.470Z,68.98
2023-04-18T14:56:30.574Z,68.88
2023-04-18T15:01:43.377Z,68.53
2023-04-18T15:07:09.023Z,68.56
2023-04-18T15:12:34.713Z,68.19
2023-04-18T15:18:00.465Z,68.47
2023-04-18T15:23:13.648Z,68.00
2023-04-18T15:28:39.632Z,67.89
2023-04-18T15:33:47.811Z,67.95
2023-04-18T15:39:13.480Z,68.02
2023-04-18T15:44:31.818Z,67.55
2023-04-18T15:49:40.085Z,67.24
2023-04-18T15:55:05.796Z,67.25
2023-04-18T16:00:17.468Z,66.74
2023-04-18T16:05:34.600Z,67.10
2023-04-18T16:11:00.159Z,66.75
2023-04-18T16:16:18.418Z,66.73
2023-04-18T16:21:44.118Z,65.93
2023-04-18T16:27:00.521Z,65.46
2023-04-18T16:32:29.233Z,65.63
2023-04-18T16:37:54.996Z,65.09
2023-04-18T16:43:21.463Z,65.12
2023-04-18T16:48:47.334Z,65.06
2023-04-18T16:53:57.428Z,64.75
2023-04-18T16:59:15.927Z,64.21
2023-04-18T17:04:27.143Z,64.60
2023-04-18T17:09:53.228Z,64.53
2023-04-18T17:15:18.945Z,64.41
2023-04-18T17:20:37.375Z,64.42
2023-04-18T17:25:51.975Z,64.71
2023-04-18T17:31:02.669Z,65.19
2023-04-18T17:36:28.886Z,65.54
2023-04-18T17:41:57.294Z,65.70
2023-04-18T17:47:22.955Z,65.91
2023-04-18T17:52:48.708Z,66.10
2023-04-18T17:58:14.380Z,66.30
2023-04-18T18:03:40.801Z,66.05
2023-04-18T18:09:06.659Z,66.12
2023-04-18T18:14:32.494Z,65.87
2023-04-18T18:19:59.082Z,66.13
2023-04-18T18:25:25.368Z,66.24
2023-04-18T18:30:51.201Z,66.32
2023-04-18T18:36:16.938Z,66.19
2023-04-18T18:41:43.212Z,66.21
2023-04-18T18:46:48.758Z,66.55
2023-04-18T18:52:15.030Z,66.34
2023-04-18T18:57:40.696Z,65.99
2023-04-18T19:03:06.717Z,65.56
2023-04-18T19:08:32.524Z,65.76
2023-04-18T19:13:58.308Z,65.58
2023-04-18T19:19:24.274Z,65.37
2023-04-18T19:24:49.938Z,65.65
2023-04-18T19:30:15.608Z,65.61
2023-04-18T19:35:31.301Z,65.55
2023-04-18T19:40:57.250Z,65.80
2023-04-18T19:46:22.960Z,66.21
2023-04-18T19:51:49.454Z,66.56
2023-04-18T19:56:56.506Z,66.86
2023-04-18T20:02:22.479Z,67.21
2023-04-18T20:07:39.563Z,67.49
2023-04-18T20:13:05.724Z,67.85
2023-04-18T20:18:32.040Z,67.99
2023-04-18T20:23:49.804Z,68.49
2023-04-18T20:29:09.147Z,68.89
2023-04-18T20:34:35.115Z,69.33
2023-04-18T20:40:00.756Z,69.36
2023-04-18T20:45:28.331Z,69.63
2023-04-18T20:50:53.994Z,70.19
2023-04-18T20:56:05.765Z,70.42
2023-04-18T21:01:14.209Z,70.67
2023-04-18T21:06:40.263Z,70.93
2023-04-18T21:12:05.982Z,71.26
2023-04-18T21:17:31.872Z,71.73
2023-04-18T21:22:57.592Z,72.09
2023-04-18T21:28:23.413Z,72.41
2023-04-18T21:33:49.096Z,72.86
2023-04-18T21:39:16.064Z,73.17
2023-04-18T21:44:41.726Z,73.30
2023-04-18T21:50:07.930Z,73.44
2023-04-18T21:55:33.620Z,73.44
2023-04-18T22:00:39.258Z,73.52
2023-04-18T22:05:57.873Z,73.64
2023-04-18T22:11:23.752Z,73.72
2023-04-18T22:16:39.880Z,73.46
2023-04-18T22:22:05.597Z,73.51
2023-04-18T22:27:31.289Z,73.29
2023-04-18T22:32:39.680Z,73.26
2023-04-18T22:38:05.850Z,73.49
2023-04-18T22:43:32.312Z,73.37
2023-04-18T22:48:56.682Z,73.38
2023-04-18T22:54:22.438Z,73.12
2023-04-18T22:59:27.908Z,73.01
2023-04-18T23:04:54.126Z,73.13
2023-04-18T23:10:02.216Z,72.84
2023-04-18T23:15:22.828Z,72.79
2023-04-18T23:20:49.232Z,72.69
2023-04-18T23:25:57.568Z,72.78
2023-04-18T23:31:23.295Z,72.18
2023-04-18T23:36:42.398Z,72.07
2023-04-18T23:42:08.065Z,71.60
2023-04-18T23:47:23.721Z,71.20
2023-04-18T23:52:49.449Z,70.86
2023-04-18T23:58:15.334Z,70.50
